Time;durP1;ratioP1;P1;durP2;ratioP2;P2;SDS_P1;SDS_P2;PMS_P1;PMS_P2;Temp;Humidity;BMP_temperature;BMP_pressure;BME280_temperature;BME280_humidity;BME280_pressure;Samples;Min_cycle;Max_cycle;Signal;HPM_P1;HPM_P2
2020/12/05 17:01:04;;;;;;;28.37;18.33;;;3.60;99.90;;;;;;5173041;27;20597;-77
2020/12/05 17:03:30;;;;;;;25.63;17.87;;;3.70;99.90;;;;;;5125043;27;20418;-78
2020/12/05 17:05:56;;;;;;;25.63;18.30;;;3.60;99.90;;;;;;5110971;28;20266;-77
2020/12/05 17:08:21;;;;;;;26.43;17.07;;;3.70;99.90;;;;;;5111249;28;20214;-76
2020/12/05 17:10:47;;;;;;;26.83;17.70;;;3.70;99.90;;;;;;5110807;28;20208;-74
2020/12/05 17:13:13;;;;;;;22.30;16.50;;;3.70;99.90;;;;;;5104165;27;20201;-77
2020/12/05 17:15:41;;;;;;;20.33;15.00;;;3.70;99.90;;;;;;5114478;27;20460;-77
2020/12/05 17:18:06;;;;;;;20.00;14.10;;;3.70;99.90;;;;;;5120683;27;20449;-78
2020/12/05 17:20:32;;;;;;;16.87;12.53;;;3.80;99.90;;;;;;5117277;27;20478;-73
2020/12/05 17:22:58;;;;;;;21.20;14.63;;;3.80;99.90;;;;;;5114763;27;20202;-73
2020/12/05 17:25:23;;;;;;;20.17;13.23;;;3.80;99.90;;;;;;5118762;27;20270;-77
2020/12/05 17:27:49;;;;;;;19.23;13.60;;;3.80;99.90;;;;;;5110260;28;20619;-73
2020/12/05 17:30:14;;;;;;;18.40;13.60;;;3.90;99.90;;;;;;5118420;27;20202;-78
2020/12/05 17:32:40;;;;;;;15.87;11.50;;;3.80;99.90;;;;;;5120304;27;20203;-78
2020/12/05 17:35:06;;;;;;;23.00;14.27;;;3.80;99.90;;;;;;5121552;27;20719;-75
2020/12/05 17:37:32;;;;;;;22.50;13.63;;;3.80;99.90;;;;;;5131508;27;20172;-77
2020/12/05 17:39:58;;;;;;;22.43;14.73;;;3.80;99.90;;;;;;5127837;27;20557;-77
2020/12/05 17:42:25;;;;;;;17.07;12.50;;;3.80;99.90;;;;;;5120229;27;20226;-77
2020/12/05 17:44:52;;;;;;;21.67;14.43;;;3.80;99.90;;;;;;5131240;27;20411;-77
2020/12/05 17:47:19;;;;;;;19.27;13.37;;;3.80;99.90;;;;;;5132389;27;20887;-78
2020/12/05 17:49:49;;;;;;;18.47;13.10;;;3.70;99.90;;;;;;5129666;27;20904;-76
2020/12/05 17:52:15;;;;;;;22.00;13.67;;;3.70;99.90;;;;;;5125256;27;20426;-78
2020/12/05 17:54:41;;;;;;;20.23;13.50;;;3.70;99.90;;;;;;5146747;27;20435;-78
2020/12/05 17:57:08;;;;;;;18.30;13.00;;;3.80;99.90;;;;;;5110992;28;20309;-73
2020/12/05 17:59:35;;;;;;;20.77;13.23;;;3.80;99.90;;;;;;5120138;27;20826;-73
2020/12/05 18:02:01;;;;;;;20.50;13.83;;;3.90;99.90;;;;;;5114589;28;20433;-73
2020/12/05 18:04:27;;;;;;;20.70;15.13;;;3.90;99.90;;;;;;5118966;27;20388;-73
2020/12/05 18:06:54;;;;;;;33.57;21.57;;;3.80;99.90;;;;;;5130548;27;20427;-76
2020/12/05 18:09:25;;;;;;;26.20;17.70;;;3.90;99.90;;;;;;5141194;27;20405;-78
2020/12/05 18:12:09;;;;;;;20.67;14.70;;;3.80;99.90;;;;;;5101909;28;20419;-77
2020/12/05 18:14:35;;;;;;;23.80;15.97;;;3.90;99.90;;;;;;5098082;28;20401;-77
2020/12/05 18:17:02;;;;;;;19.77;13.83;;;3.90;99.90;;;;;;5095578;28;20411;-78
2020/12/05 18:19:29;;;;;;;22.77;15.27;;;3.80;99.90;;;;;;5095085;28;20450;-78
2020/12/05 18:21:55;;;;;;;22.33;14.83;;;3.80;99.90;;;;;;5094764;28;20697;-77
2020/12/05 18:24:22;;;;;;;20.07;14.30;;;3.80;99.90;;;;;;5097080;28;20518;-78
2020/12/05 18:26:48;;;;;;;20.70;14.90;;;3.80;99.90;;;;;;5088417;28;20395;-77
2020/12/05 18:29:15;;;;;;;25.80;17.23;;;3.80;99.90;;;;;;5086075;28;20529;-77
2020/12/05 18:31:42;;;;;;;23.37;16.87;;;3.80;99.90;;;;;;5096179;28;20785;-77
2020/12/05 18:34:08;;;;;;;28.27;15.83;;;3.80;99.90;;;;;;5114143;28;20457;-76
2020/12/05 18:36:34;;;;;;;21.30;15.50;;;3.80;99.90;;;;;;5095539;28;20420;-75
2020/12/05 18:39:00;;;;;;;21.70;16.23;;;3.80;99.90;;;;;;5095106;27;20290;-78
2020/12/05 18:41:26;;;;;;;24.23;17.17;;;3.80;99.90;;;;;;5116243;27;20918;-76
2020/12/05 18:43:56;;;;;;;28.03;16.60;;;3.90;99.90;;;;;;5112679;28;20248;-77
2020/12/05 18:46:26;;;;;;;22.80;15.10;;;3.90;99.90;;;;;;5096154;28;20497;-78
2020/12/05 18:48:52;;;;;;;26.43;16.10;;;3.90;99.90;;;;;;5095502;28;20399;-75
2020/12/05 18:51:26;;;;;;;21.80;14.90;;;3.80;99.90;;;;;;5095312;28;20536;-75
2020/12/05 18:53:57;;;;;;;24.80;16.83;;;3.80;99.90;;;;;;5095399;28;20708;-75
2020/12/05 18:56:26;;;;;;;22.13;15.60;;;3.80;99.90;;;;;;5099594;27;20516;-73
2020/12/05 18:58:55;;;;;;;26.30;16.97;;;3.80;99.90;;;;;;5098854;28;20396;-76
2020/12/05 19:01:21;;;;;;;21.60;15.10;;;3.70;99.90;;;;;;5099289;28;20824;-76
2020/12/05 19:03:47;;;;;;;27.20;17.70;;;3.70;99.90;;;;;;5109637;27;20445;-76
2020/12/05 19:06:12;;;;;;;24.87;15.83;;;3.70;99.90;;;;;;5099945;28;20414;-76
2020/12/05 19:08:38;;;;;;;26.27;17.30;;;3.70;99.90;;;;;;5109231;27;20251;-76
2020/12/05 19:11:04;;;;;;;30.50;18.77;;;3.70;99.90;;;;;;5114130;27;20513;-76
2020/12/05 19:13:30;;;;;;;29.23;18.07;;;3.70;99.90;;;;;;5100061;27;20195;-73
2020/12/05 19:15:57;;;;;;;30.17;17.83;;;3.70;99.90;;;;;;5115276;27;20499;-74
2020/12/05 19:18:24;;;;;;;22.37;17.20;;;3.70;99.90;;;;;;5110752;28;20441;-75
2020/12/05 19:20:52;;;;;;;26.77;16.97;;;3.70;99.90;;;;;;5119434;27;20463;-75
2020/12/05 19:23:19;;;;;;;24.53;16.97;;;3.70;99.90;;;;;;5097544;28;20477;-77
2020/12/05 19:25:45;;;;;;;24.60;17.43;;;3.80;99.90;;;;;;5109929;27;20758;-78
2020/12/05 19:28:11;;;;;;;24.53;16.30;;;3.80;99.90;;;;;;5114480;27;20421;-78
2020/12/05 19:30:37;;;;;;;20.37;15.53;;;3.70;99.90;;;;;;5103500;27;20187;-76
2020/12/05 19:33:03;;;;;;;25.17;16.20;;;3.80;99.90;;;;;;5113998;27;20197;-76
2020/12/05 19:35:29;;;;;;;21.20;15.17;;;3.80;99.90;;;;;;5114821;27;20182;-76
2020/12/05 19:37:55;;;;;;;24.80;16.83;;;3.70;99.90;;;;;;5106271;28;20228;-76
2020/12/05 19:40:21;;;;;;;22.83;15.70;;;3.70;99.90;;;;;;5094776;28;20428;-72
2020/12/05 19:42:47;;;;;;;23.20;15.97;;;3.70;99.90;;;;;;5095316;28;21017;-74
2020/12/05 19:45:13;;;;;;;25.13;16.50;;;3.70;99.90;;;;;;5097381;28;20483;-75
2020/12/05 19:47:39;;;;;;;24.20;16.83;;;3.80;99.90;;;;;;5098284;28;20383;-74
2020/12/05 19:50:08;;;;;;;23.83;16.80;;;3.70;99.90;;;;;;5116498;28;20380;-75
2020/12/05 19:52:35;;;;;;;28.80;18.20;;;3.80;99.90;;;;;;5096734;28;20451;-75
2020/12/05 19:55:02;;;;;;;26.67;18.80;;;3.70;99.90;;;;;;5114846;28;20413;-78
2020/12/05 19:57:28;;;;;;;29.00;16.33;;;3.70;99.90;;;;;;5096640;28;20410;-78
2020/12/05 19:59:54;;;;;;;25.33;17.37;;;3.70;99.90;;;;;;5093154;28;21078;-78
2020/12/05 20:02:20;;;;;;;24.20;16.20;;;3.70;99.90;;;;;;5094719;28;20195;-72
2020/12/05 20:04:45;;;;;;;22.10;16.13;;;3.60;99.90;;;;;;5094179;28;20500;-72
2020/12/05 20:07:11;;;;;;;27.03;17.53;;;3.60;99.90;;;;;;5094371;28;20171;-72
2020/12/05 20:09:37;;;;;;;21.77;15.37;;;3.60;99.90;;;;;;5094213;28;20553;-72
2020/12/05 20:12:02;;;;;;;22.13;16.20;;;3.60;99.90;;;;;;5092048;28;20186;-77
2020/12/05 20:14:28;;;;;;;25.27;16.80;;;3.50;99.90;;;;;;5101948;28;20583;-76
2020/12/05 20:16:54;;;;;;;22.53;16.47;;;3.50;99.90;;;;;;5093924;28;20549;-77
2020/12/05 20:19:19;;;;;;;23.90;16.57;;;3.50;99.90;;;;;;5092984;28;20195;-78
2020/12/05 20:21:49;;;;;;;21.97;16.30;;;3.50;99.90;;;;;;5093581;28;20175;-76
2020/12/05 20:24:16;;;;;;;22.93;15.90;;;3.50;99.90;;;;;;5102042;28;20559;-73
2020/12/05 20:26:43;;;;;;;26.67;16.43;;;3.50;99.90;;;;;;5093819;28;20384;-73
2020/12/05 20:29:09;;;;;;;31.70;16.20;;;3.50;99.90;;;;;;5108445;27;20488;-77
2020/12/05 20:31:36;;;;;;;29.33;18.37;;;3.50;99.90;;;;;;5112381;27;20412;-73
2020/12/05 20:34:03;;;;;;;29.77;19.30;;;3.50;99.90;;;;;;5093330;28;20467;-75
2020/12/05 20:36:29;;;;;;;35.43;21.20;;;3.50;99.90;;;;;;5093939;28;20385;-73
2020/12/05 20:38:55;;;;;;;20.63;15.13;;;3.50;99.90;;;;;;5097783;28;20528;-77
2020/12/05 20:41:21;;;;;;;30.63;16.80;;;3.50;99.90;;;;;;5109693;27;20850;-76
2020/12/05 20:43:48;;;;;;;24.90;16.93;;;3.50;99.90;;;;;;5106139;28;20566;-73
2020/12/05 20:46:15;;;;;;;22.37;16.43;;;3.50;99.90;;;;;;5093625;28;20442;-73
2020/12/05 20:48:41;;;;;;;25.47;17.00;;;3.50;99.90;;;;;;5107908;28;20467;-77
2020/12/05 20:51:07;;;;;;;23.60;16.20;;;3.50;99.90;;;;;;5098937;28;20413;-77
2020/12/05 20:53:33;;;;;;;22.60;17.03;;;3.50;99.90;;;;;;5111079;27;20443;-75
2020/12/05 20:55:59;;;;;;;45.00;26.00;;;3.50;99.90;;;;;;5111627;28;20214;-75
2020/12/05 20:58:25;;;;;;;38.63;23.87;;;3.50;99.90;;;;;;5114993;28;20424;-78
2020/12/05 21:00:50;;;;;;;27.77;18.80;;;3.50;99.90;;;;;;5093205;28;20434;-77
2020/12/05 21:03:16;;;;;;;26.63;19.00;;;3.50;99.90;;;;;;5096052;28;20246;-75
2020/12/05 21:05:42;;;;;;;27.50;18.30;;;3.50;99.90;;;;;;5106737;28;20175;-76
2020/12/05 21:08:07;;;;;;;25.13;17.37;;;3.50;99.90;;;;;;5103128;28;20179;-76
2020/12/05 21:10:33;;;;;;;29.57;17.90;;;3.50;99.90;;;;;;5112834;28;20172;-76
2020/12/05 21:12:59;;;;;;;26.70;17.50;;;3.50;99.90;;;;;;5093216;28;20196;-73
2020/12/05 21:15:24;;;;;;;33.20;20.10;;;3.50;99.90;;;;;;5101396;28;20184;-75
2020/12/05 21:17:50;;;;;;;36.20;21.60;;;3.50;99.90;;;;;;5110111;28;20496;-73
2020/12/05 21:20:17;;;;;;;28.60;18.90;;;3.50;99.90;;;;;;5096000;28;20256;-76
2020/12/05 21:22:42;;;;;;;25.23;17.93;;;3.50;99.90;;;;;;5107070;28;20198;-72
2020/12/05 21:25:08;;;;;;;25.10;18.80;;;3.50;99.90;;;;;;5110229;28;20837;-72
2020/12/05 21:27:34;;;;;;;26.53;18.03;;;3.50;99.90;;;;;;5093941;28;20262;-73
2020/12/05 21:30:00;;;;;;;26.43;18.60;;;3.50;99.90;;;;;;5096476;28;20180;-74
2020/12/05 21:32:26;;;;;;;29.97;18.60;;;3.50;99.90;;;;;;5113162;28;20441;-74
2020/12/05 21:34:51;;;;;;;26.30;17.50;;;3.50;99.90;;;;;;5080339;28;20173;-77
2020/12/05 21:37:17;;;;;;;26.33;17.13;;;3.50;99.90;;;;;;5100907;28;20486;-73
2020/12/05 21:39:43;;;;;;;23.80;16.43;;;3.50;99.90;;;;;;5103491;28;20544;-76
2020/12/05 21:42:09;;;;;;;30.37;19.97;;;3.50;99.90;;;;;;5094085;28;20425;-72
2020/12/05 21:44:35;;;;;;;25.23;17.73;;;3.60;99.90;;;;;;5096769;28;20179;-72
2020/12/05 21:47:00;;;;;;;26.27;18.43;;;3.50;99.90;;;;;;5104172;27;20506;-72
2020/12/05 21:49:26;;;;;;;31.03;20.37;;;3.50;99.90;;;;;;5099802;28;20188;-72
2020/12/05 21:51:52;;;;;;;30.70;19.73;;;3.50;99.90;;;;;;5100240;27;20179;-72
2020/12/05 21:54:18;;;;;;;25.00;18.77;;;3.50;99.90;;;;;;5109051;27;20287;-77
2020/12/05 21:56:49;;;;;;;26.07;18.10;;;3.50;99.90;;;;;;5114341;28;20208;-74
2020/12/05 21:59:14;;;;;;;28.67;19.03;;;3.50;99.90;;;;;;5098763;27;20984;-76
2020/12/05 22:01:40;;;;;;;29.97;19.70;;;3.50;99.90;;;;;;5116600;27;20421;-72
2020/12/05 22:04:08;;;;;;;30.30;20.27;;;3.50;99.90;;;;;;5103677;27;20198;-77
2020/12/05 22:06:33;;;;;;;28.93;18.63;;;3.50;99.90;;;;;;5108003;27;20690;-73
2020/12/05 22:08:59;;;;;;;30.87;19.93;;;3.50;99.90;;;;;;5098780;27;20422;-74
2020/12/05 22:11:25;;;;;;;26.77;19.00;;;3.50;99.90;;;;;;5112322;27;20651;-74
2020/12/05 22:13:51;;;;;;;30.27;19.50;;;3.60;99.90;;;;;;5099393;28;20193;-76
2020/12/05 22:16:16;;;;;;;31.13;20.53;;;3.50;99.90;;;;;;5112722;27;20577;-78
2020/12/05 22:18:42;;;;;;;29.20;20.33;;;3.60;99.90;;;;;;5102155;27;20386;-75
2020/12/05 22:21:09;;;;;;;29.33;19.93;;;3.60;99.90;;;;;;5110545;28;20203;-75
2020/12/05 22:23:35;;;;;;;32.43;21.27;;;3.50;99.90;;;;;;5105555;27;20524;-77
2020/12/05 22:26:01;;;;;;;31.83;21.47;;;3.50;99.90;;;;;;5115955;27;20423;-75
2020/12/05 22:28:26;;;;;;;28.97;20.27;;;3.50;99.90;;;;;;5116008;27;20590;-74
2020/12/05 22:30:52;;;;;;;34.73;22.10;;;3.50;99.90;;;;;;5107453;27;20397;-74
2020/12/05 22:33:18;;;;;;;32.60;20.90;;;3.50;99.90;;;;;;5108595;27;20467;-74
2020/12/05 22:35:43;;;;;;;30.57;19.63;;;3.50;99.90;;;;;;5107975;27;20285;-74
2020/12/05 22:38:09;;;;;;;30.60;19.90;;;3.60;99.90;;;;;;5095428;28;20187;-72
2020/12/05 22:40:35;;;;;;;32.70;19.43;;;3.60;99.90;;;;;;5108167;27;20198;-74
2020/12/05 22:43:00;;;;;;;27.33;19.80;;;3.50;99.90;;;;;;5103765;28;20196;-72
2020/12/05 22:45:26;;;;;;;25.37;18.80;;;3.60;99.90;;;;;;5108182;27;20174;-72
2020/12/05 22:47:52;;;;;;;29.67;19.80;;;3.60;99.90;;;;;;5095538;28;20581;-76
2020/12/05 22:50:20;;;;;;;31.87;20.33;;;3.60;99.90;;;;;;5099353;27;20884;-76
2020/12/05 22:52:46;;;;;;;36.07;22.17;;;3.60;99.90;;;;;;5098950;28;20277;-75
2020/12/05 22:55:12;;;;;;;32.50;19.80;;;3.60;99.90;;;;;;5126218;27;20478;-76
2020/12/05 22:57:38;;;;;;;31.27;21.60;;;3.60;99.90;;;;;;5104986;27;20417;-77
2020/12/05 23:00:33;;;;;;;33.63;20.63;;;3.60;99.90;;;;;;5115330;27;20208;-78
2020/12/05 23:02:58;;;;;;;33.67;21.53;;;3.60;99.90;;;;;;5069620;28;20219;-73
2020/12/05 23:05:24;;;;;;;31.03;20.80;;;3.60;99.90;;;;;;5111934;27;20478;-73
2020/12/05 23:07:50;;;;;;;35.40;21.67;;;3.60;99.90;;;;;;5111643;28;20418;-72
2020/12/05 23:10:17;;;;;;;32.17;22.07;;;3.60;99.90;;;;;;5099074;28;20676;-77
2020/12/05 23:12:46;;;;;;;36.40;23.07;;;3.60;99.90;;;;;;5107292;27;20276;-77
2020/12/05 23:15:12;;;;;;;30.87;21.47;;;3.60;99.90;;;;;;5094933;28;20388;-76
2020/12/05 23:17:42;;;;;;;30.10;20.37;;;3.60;99.90;;;;;;5094787;28;20410;-72
2020/12/05 23:20:11;;;;;;;28.27;19.47;;;3.70;99.90;;;;;;5104988;27;20524;-79
2020/12/05 23:22:36;;;;;;;33.23;20.03;;;3.70;99.90;;;;;;5109242;28;20405;-76
2020/12/05 23:25:03;;;;;;;29.07;20.47;;;3.60;99.90;;;;;;5095567;27;20433;-75
2020/12/05 23:27:29;;;;;;;27.07;19.80;;;3.70;99.90;;;;;;5105924;28;20437;-76
2020/12/05 23:30:07;;;;;;;33.40;21.70;;;3.70;99.90;;;;;;5094171;28;20400;-77
2020/12/05 23:34:08;;;;;;;29.40;20.73;;;3.70;99.90;;;;;;5098526;28;20454;-77
2020/12/05 23:35:19;;;;;;;26.90;18.20;;;3.70;99.90;;;;;;5115751;27;20457;-74
2020/12/05 23:37:44;;;;;;;28.70;18.87;;;3.70;99.90;;;;;;5108084;27;20976;-75
2020/12/05 23:40:10;;;;;;;27.83;18.13;;;3.70;99.90;;;;;;5105155;27;21064;-77
2020/12/05 23:42:36;;;;;;;36.23;19.60;;;3.80;99.90;;;;;;5100380;28;20545;-77
2020/12/05 23:45:04;;;;;;;33.33;20.60;;;3.70;99.90;;;;;;5098273;28;20666;-77
2020/12/05 23:47:29;;;;;;;31.90;21.10;;;3.70;99.90;;;;;;5094844;27;20229;-77
2020/12/05 23:49:55;;;;;;;28.13;21.10;;;3.70;99.90;;;;;;5110357;28;20400;-73
2020/12/05 23:52:21;;;;;;;29.80;20.80;;;3.70;99.90;;;;;;5106878;27;20195;-77
2020/12/05 23:54:47;;;;;;;28.67;19.43;;;3.70;99.90;;;;;;5102483;28;20184;-73
2020/12/05 23:57:13;;;;;;;29.00;20.20;;;3.80;99.90;;;;;;5106820;28;20411;-73
2020/12/05 23:59:38;;;;;;;31.63;19.37;;;3.70;99.90;;;;;;5103556;28;20206;-75
